»·PEaware :: N497PC KPDX-KOTH

N497PC :: KPDX-KOTH

FLIGHT INFORMATION

Flight Status: Arrived
Operator: Privately registered:
United States
More flights under this callsign
Pilot: Ryan K. (14126)
Aircraft: PILATUS PC-12 EAGLE
(PC12)
More flights by this aircraft type
Origin: KPDX Portland Intl
United States
Destination: KOTH North Bend Mun
United States
More flights between these airports :: More routes between these airports
Route: +UBG V287 OTH
File this flight plan on PilotEdge
Remarks:
Altitude:
(Current/Filed)
14,000ft
Speed:
(Current/Filed)
200kts
Departed: 28-Feb-18 07:33 PM
Arrived: 28-Feb-18 08:16 PM
Distance/Time
Traveled:
148nm/0:43
Distance/Time
To Go:
Arrived

Flight Plot

Page will automatically refresh every two minutes.

Flight plan parsing failed; only flown route is shown


Map Options




Map Legend


Flown Route
Filed Route
Departure Airport
Arrival Airport
Navaid (VOR, NDB)
Fix

Horizontal Profiles

Position Reports

Time Latitude Longitude Heading Altitude Ground
Speed
28-Feb-18 19:18 45.588547 -122.613544 181 17ft 0kts
28-Feb-18 19:19 45.588547 -122.613544 181 17ft 0kts
28-Feb-18 19:20 45.588547 -122.613544 181 17ft 0kts
28-Feb-18 19:21 45.588547 -122.613544 181 17ft 0kts
28-Feb-18 19:22 45.588547 -122.613544 181 17ft 0kts
28-Feb-18 19:23 45.588547 -122.613544 181 17ft 0kts
28-Feb-18 19:24 45.588547 -122.613544 181 17ft 0kts
28-Feb-18 19:25 45.588547 -122.613544 181 17ft 0kts
28-Feb-18 19:26 45.588547 -122.613544 181 17ft 0kts
28-Feb-18 19:27 45.588547 -122.613544 181 17ft 0kts
28-Feb-18 19:28 45.588547 -122.613544 181 17ft 0kts
28-Feb-18 19:29 45.588547 -122.613544 181 17ft 0kts
28-Feb-18 19:30 45.588547 -122.613544 181 17ft 0kts
28-Feb-18 19:31 45.588547 -122.613544 181 17ft 0kts
28-Feb-18 19:32 45.588547 -122.613544 181 17ft 0kts
28-Feb-18 19:33 45.588547 -122.613544 181 17ft 0kts
28-Feb-18 19:34 45.588547 -122.613544 181 17ft 0kts
28-Feb-18 19:35 45.589056 -122.612907 325 17ft 12kts
28-Feb-18 19:36 45.591930 -122.619248 298 17ft 25kts
28-Feb-18 19:37 45.592977 -122.622012 303 20ft 0kts
28-Feb-18 19:38 45.592977 -122.622012 303 20ft 0kts
28-Feb-18 19:39 45.594524 -122.619909 117 20ft 32kts
28-Feb-18 19:40 45.577716 -122.574923 117 1534ft 161kts
28-Feb-18 19:41 45.552526 -122.522314 165 3544ft 198kts
28-Feb-18 19:42 45.515805 -122.570514 239 4719ft 191kts
28-Feb-18 19:43 45.489754 -122.635630 239 6005ft 185kts
28-Feb-18 19:44 45.463870 -122.700542 239 7719ft 192kts
28-Feb-18 19:45 45.437226 -122.767424 239 9546ft 197kts
28-Feb-18 19:46 45.410165 -122.835217 239 11376ft 198kts
28-Feb-18 19:47 45.382896 -122.903342 239 13186ft 201kts
28-Feb-18 19:48 45.351995 -122.975476 217 13999ft 238kts
28-Feb-18 19:49 45.289650 -123.018239 204 13991ft 255kts
28-Feb-18 19:50 45.224219 -123.059888 203 13990ft 260kts
28-Feb-18 19:51 45.158939 -123.101214 203 14271ft 252kts
28-Feb-18 19:52 45.093959 -123.142261 203 14292ft 259kts
28-Feb-18 19:53 45.027827 -123.183935 203 14292ft 261kts
28-Feb-18 19:54 44.961677 -123.225420 203 14292ft 261kts
28-Feb-18 19:55 44.895747 -123.266829 203 14292ft 261kts
28-Feb-18 19:56 44.829267 -123.308390 203 14292ft 261kts
28-Feb-18 19:57 44.762732 -123.349884 203 14292ft 261kts
28-Feb-18 19:58 44.696327 -123.391192 203 14292ft 261kts
28-Feb-18 19:59 44.629905 -123.432405 203 14292ft 261kts
28-Feb-18 20:00 44.563535 -123.473480 203 14292ft 262kts
28-Feb-18 20:01 44.496521 -123.514854 203 14292ft 264kts
28-Feb-18 20:02 44.429241 -123.556291 203 14292ft 265kts
28-Feb-18 20:03 44.361851 -123.597688 203 14292ft 265kts
28-Feb-18 20:04 44.294274 -123.639086 203 14199ft 267kts
28-Feb-18 20:05 44.226080 -123.680836 203 13275ft 266kts
28-Feb-18 20:06 44.158609 -123.721969 203 12363ft 264kts
28-Feb-18 20:07 44.091746 -123.762618 203 11467ft 262kts
28-Feb-18 20:08 44.025450 -123.802856 203 10583ft 258kts
28-Feb-18 20:09 43.961879 -123.841331 203 10291ft 240kts
28-Feb-18 20:10 43.901904 -123.877573 203 10292ft 232kts
28-Feb-18 20:11 43.843218 -123.912863 203 10292ft 231kts
28-Feb-18 20:12 43.794232 -123.942465 203 9781ft 229kts
28-Feb-18 20:13 43.737114 -123.979027 203 8971ft 226kts
28-Feb-18 20:14 43.673852 -124.029275 211 8039ft 224kts
28-Feb-18 20:15 43.622487 -124.077658 214 7253ft 222kts
28-Feb-18 20:16 43.587451 -124.119636 229 6081ft 191kts
28-Feb-18 20:17 43.555986 -124.175329 236 4569ft 180kts
28-Feb-18 20:18 43.528276 -124.231322 226 3084ft 174kts
28-Feb-18 20:19 43.496351 -124.264493 213 2332ft 129kts
28-Feb-18 20:20 43.465176 -124.279979 172 1835ft 111kts
28-Feb-18 20:21 43.438381 -124.261174 148 819ft 105kts
28-Feb-18 20:22 43.415836 -124.243006 149 17ft 60kts
28-Feb-18 20:23 43.411809 -124.241256 329 16ft 17kts

Navigation Log

Ident Type
Flight plan parsing failed, navigation log unavailable